sensor_id;sensor_type;location;lat;lon;timestamp;temperature;humidity
72650;SHT31;61467;50.674;4.618;2023-03-18T00:00:14;13.47;75.79
72650;SHT31;61467;50.674;4.618;2023-03-18T00:02:44;13.44;75.27
72650;SHT31;61467;50.674;4.618;2023-03-18T00:05:12;13.47;75.06
72650;SHT31;61467;50.674;4.618;2023-03-18T00:07:39;13.42;75.36
72650;SHT31;61467;50.674;4.618;2023-03-18T00:10:08;13.27;75.66
72650;SHT31;61467;50.674;4.618;2023-03-18T00:12:36;13.33;75.81
72650;SHT31;61467;50.674;4.618;2023-03-18T00:15:07;12.96;77.23
72650;SHT31;61467;50.674;4.618;2023-03-18T00:17:34;13.14;76.73
72650;SHT31;61467;50.674;4.618;2023-03-18T00:20:02;13.08;76.66
72650;SHT31;61467;50.674;4.618;2023-03-18T00:22:31;13.25;76.42
72650;SHT31;61467;50.674;4.618;2023-03-18T00:24:58;13.27;76.17
72650;SHT31;61467;50.674;4.618;2023-03-18T00:27:25;13.07;76.67
72650;SHT31;61467;50.674;4.618;2023-03-18T00:29:52;13.04;77.10
72650;SHT31;61467;50.674;4.618;2023-03-18T00:32:20;13.07;76.62
72650;SHT31;61467;50.674;4.618;2023-03-18T00:34:47;13.03;77.59
72650;SHT31;61467;50.674;4.618;2023-03-18T00:37:15;12.89;77.95
72650;SHT31;61467;50.674;4.618;2023-03-18T00:39:54;13.07;77.22
72650;SHT31;61467;50.674;4.618;2023-03-18T00:42:21;13.13;77.05
72650;SHT31;61467;50.674;4.618;2023-03-18T00:44:48;13.02;77.38
72650;SHT31;61467;50.674;4.618;2023-03-18T00:47:15;13.10;77.23
72650;SHT31;61467;50.674;4.618;2023-03-18T00:49:44;13.07;77.46
72650;SHT31;61467;50.674;4.618;2023-03-18T00:52:13;13.04;77.28
72650;SHT31;61467;50.674;4.618;2023-03-18T00:54:40;13.06;77.55
72650;SHT31;61467;50.674;4.618;2023-03-18T00:57:07;12.89;78.48
72650;SHT31;61467;50.674;4.618;2023-03-18T00:59:35;12.93;78.06
72650;SHT31;61467;50.674;4.618;2023-03-18T01:02:02;12.89;78.19
72650;SHT31;61467;50.674;4.618;2023-03-18T01:04:32;13.02;77.61
72650;SHT31;61467;50.674;4.618;2023-03-18T01:07:00;12.97;77.98
72650;SHT31;61467;50.674;4.618;2023-03-18T01:09:27;12.93;78.00
72650;SHT31;61467;50.674;4.618;2023-03-18T01:11:54;12.94;77.99
72650;SHT31;61467;50.674;4.618;2023-03-18T01:14:21;13.06;77.62
72650;SHT31;61467;50.674;4.618;2023-03-18T01:16:48;13.06;77.58
72650;SHT31;61467;50.674;4.618;2023-03-18T01:19:14;13.07;77.66
72650;SHT31;61467;50.674;4.618;2023-03-18T01:21:41;13.02;77.83
72650;SHT31;61467;50.674;4.618;2023-03-18T01:24:10;13.10;77.38
72650;SHT31;61467;50.674;4.618;2023-03-18T01:26:37;13.08;77.50
72650;SHT31;61467;50.674;4.618;2023-03-18T01:29:04;13.02;77.59
72650;SHT31;61467;50.674;4.618;2023-03-18T01:31:31;13.07;77.62
72650;SHT31;61467;50.674;4.618;2023-03-18T01:33:59;13.13;77.57
72650;SHT31;61467;50.674;4.618;2023-03-18T01:36:26;13.03;77.75
72650;SHT31;61467;50.674;4.618;2023-03-18T01:38:54;13.08;77.84
72650;SHT31;61467;50.674;4.618;2023-03-18T01:41:23;13.07;77.64
72650;SHT31;61467;50.674;4.618;2023-03-18T01:43:52;13.10;77.23
72650;SHT31;61467;50.674;4.618;2023-03-18T01:46:37;13.10;77.44
72650;SHT31;61467;50.674;4.618;2023-03-18T01:49:07;13.11;77.40
72650;SHT31;61467;50.674;4.618;2023-03-18T01:51:38;13.11;77.30
72650;SHT31;61467;50.674;4.618;2023-03-18T01:54:06;13.13;77.33
72650;SHT31;61467;50.674;4.618;2023-03-18T01:56:36;13.04;77.41
72650;SHT31;61467;50.674;4.618;2023-03-18T01:59:05;13.06;77.34
72650;SHT31;61467;50.674;4.618;2023-03-18T02:01:39;12.93;77.62
72650;SHT31;61467;50.674;4.618;2023-03-18T02:04:08;12.89;78.06
72650;SHT31;61467;50.674;4.618;2023-03-18T02:06:36;12.76;78.04
72650;SHT31;61467;50.674;4.618;2023-03-18T02:09:03;12.89;77.79
72650;SHT31;61467;50.674;4.618;2023-03-18T02:11:32;12.76;78.25
72650;SHT31;61467;50.674;4.618;2023-03-18T02:14:02;12.76;78.15
72650;SHT31;61467;50.674;4.618;2023-03-18T02:16:34;12.86;77.89
72650;SHT31;61467;50.674;4.618;2023-03-18T02:19:08;12.73;78.24
72650;SHT31;61467;50.674;4.618;2023-03-18T02:21:43;12.82;78.14
72650;SHT31;61467;50.674;4.618;2023-03-18T02:24:21;12.76;77.86
72650;SHT31;61467;50.674;4.618;2023-03-18T02:26:55;12.76;77.66
72650;SHT31;61467;50.674;4.618;2023-03-18T02:29:25;12.82;77.74
72650;SHT31;61467;50.674;4.618;2023-03-18T02:31:56;12.66;77.71
72650;SHT31;61467;50.674;4.618;2023-03-18T02:34:24;12.50;78.41
72650;SHT31;61467;50.674;4.618;2023-03-18T02:36:51;12.55;78.27
72650;SHT31;61467;50.674;4.618;2023-03-18T02:39:20;12.69;77.72
72650;SHT31;61467;50.674;4.618;2023-03-18T02:41:48;12.59;78.11
72650;SHT31;61467;50.674;4.618;2023-03-18T02:44:15;12.59;78.14
72650;SHT31;61467;50.674;4.618;2023-03-18T02:46:49;12.52;78.43
72650;SHT31;61467;50.674;4.618;2023-03-18T02:49:19;12.57;78.44
72650;SHT31;61467;50.674;4.618;2023-03-18T02:51:46;12.60;77.97
72650;SHT31;61467;50.674;4.618;2023-03-18T02:54:19;12.63;77.95
72650;SHT31;61467;50.674;4.618;2023-03-18T02:56:46;12.69;77.33
72650;SHT31;61467;50.674;4.618;2023-03-18T02:59:13;12.66;77.47
72650;SHT31;61467;50.674;4.618;2023-03-18T03:01:42;12.63;77.41
72650;SHT31;61467;50.674;4.618;2023-03-18T03:04:12;12.63;77.25
72650;SHT31;61467;50.674;4.618;2023-03-18T03:06:39;12.45;77.99
72650;SHT31;61467;50.674;4.618;2023-03-18T03:09:08;12.56;77.47
72650;SHT31;61467;50.674;4.618;2023-03-18T03:11:36;12.50;77.79
72650;SHT31;61467;50.674;4.618;2023-03-18T03:14:03;12.49;77.51
72650;SHT31;61467;50.674;4.618;2023-03-18T03:16:30;12.57;77.28
72650;SHT31;61467;50.674;4.618;2023-03-18T03:18:57;12.52;77.20
72650;SHT31;61467;50.674;4.618;2023-03-18T03:21:25;12.38;77.70
72650;SHT31;61467;50.674;4.618;2023-03-18T03:23:52;12.32;77.76
72650;SHT31;61467;50.674;4.618;2023-03-18T03:26:20;12.39;77.49
72650;SHT31;61467;50.674;4.618;2023-03-18T03:28:47;12.26;77.80
72650;SHT31;61467;50.674;4.618;2023-03-18T03:31:14;12.32;77.33
72650;SHT31;61467;50.674;4.618;2023-03-18T03:33:41;12.14;77.86
72650;SHT31;61467;50.674;4.618;2023-03-18T03:36:10;12.21;77.91
72650;SHT31;61467;50.674;4.618;2023-03-18T03:38:38;12.11;78.38
72650;SHT31;61467;50.674;4.618;2023-03-18T03:41:06;12.18;78.09
72650;SHT31;61467;50.674;4.618;2023-03-18T03:43:35;12.08;77.96
72650;SHT31;61467;50.674;4.618;2023-03-18T03:46:02;12.18;78.20
72650;SHT31;61467;50.674;4.618;2023-03-18T03:48:29;12.10;78.12
72650;SHT31;61467;50.674;4.618;2023-03-18T03:50:56;12.20;77.67
72650;SHT31;61467;50.674;4.618;2023-03-18T03:53:24;12.15;77.77
72650;SHT31;61467;50.674;4.618;2023-03-18T03:55:53;12.17;77.53
72650;SHT31;61467;50.674;4.618;2023-03-18T03:58:20;12.18;77.45
72650;SHT31;61467;50.674;4.618;2023-03-18T04:00:47;12.11;77.45
72650;SHT31;61467;50.674;4.618;2023-03-18T04:03:14;11.99;77.63
72650;SHT31;61467;50.674;4.618;2023-03-18T04:05:41;11.99;77.97
72650;SHT31;61467;50.674;4.618;2023-03-18T04:08:08;11.85;78.43
72650;SHT31;61467;50.674;4.618;2023-03-18T04:10:35;11.90;78.38
72650;SHT31;61467;50.674;4.618;2023-03-18T04:13:04;11.95;78.12
72650;SHT31;61467;50.674;4.618;2023-03-18T04:15:31;11.88;78.48
72650;SHT31;61467;50.674;4.618;2023-03-18T04:17:58;11.93;78.07
72650;SHT31;61467;50.674;4.618;2023-03-18T04:20:32;11.81;78.27
72650;SHT31;61467;50.674;4.618;2023-03-18T04:23:00;11.84;78.42
72650;SHT31;61467;50.674;4.618;2023-03-18T04:25:27;11.93;78.05
72650;SHT31;61467;50.674;4.618;2023-03-18T04:27:54;11.80;78.09
72650;SHT31;61467;50.674;4.618;2023-03-18T04:30:22;11.78;78.33
72650;SHT31;61467;50.674;4.618;2023-03-18T04:32:51;11.80;78.28
72650;SHT31;61467;50.674;4.618;2023-03-18T04:35:19;11.75;78.44
72650;SHT31;61467;50.674;4.618;2023-03-18T04:37:47;11.67;78.50
72650;SHT31;61467;50.674;4.618;2023-03-18T04:40:15;11.74;78.43
72650;SHT31;61467;50.674;4.618;2023-03-18T04:42:42;11.73;78.28
72650;SHT31;61467;50.674;4.618;2023-03-18T04:45:13;11.75;78.58
72650;SHT31;61467;50.674;4.618;2023-03-18T04:47:41;11.67;78.65
72650;SHT31;61467;50.674;4.618;2023-03-18T04:50:10;11.64;78.75
72650;SHT31;61467;50.674;4.618;2023-03-18T04:52:37;11.71;78.53
72650;SHT31;61467;50.674;4.618;2023-03-18T04:55:06;11.67;78.61
72650;SHT31;61467;50.674;4.618;2023-03-18T04:57:33;11.77;78.15
72650;SHT31;61467;50.674;4.618;2023-03-18T05:00:03;11.75;78.29
72650;SHT31;61467;50.674;4.618;2023-03-18T05:02:30;11.75;78.40
72650;SHT31;61467;50.674;4.618;2023-03-18T05:04:58;11.50;79.28
72650;SHT31;61467;50.674;4.618;2023-03-18T05:07:26;11.59;79.33
72650;SHT31;61467;50.674;4.618;2023-03-18T05:09:52;11.62;79.04
72650;SHT31;61467;50.674;4.618;2023-03-18T05:12:19;11.43;80.10
72650;SHT31;61467;50.674;4.618;2023-03-18T05:14:46;11.44;79.89
72650;SHT31;61467;50.674;4.618;2023-03-18T05:17:13;11.47;80.13
72650;SHT31;61467;50.674;4.618;2023-03-18T05:19:41;11.56;79.47
72650;SHT31;61467;50.674;4.618;2023-03-18T05:22:10;11.62;79.27
72650;SHT31;61467;50.674;4.618;2023-03-18T05:24:37;11.66;78.79
72650;SHT31;61467;50.674;4.618;2023-03-18T05:27:05;11.59;78.72
72650;SHT31;61467;50.674;4.618;2023-03-18T05:29:32;11.53;78.88
72650;SHT31;61467;50.674;4.618;2023-03-18T05:31:58;11.63;79.07
72650;SHT31;61467;50.674;4.618;2023-03-18T05:34:25;11.66;78.61
72650;SHT31;61467;50.674;4.618;2023-03-18T05:36:52;11.71;78.18
72650;SHT31;61467;50.674;4.618;2023-03-18T05:39:20;11.73;78.04
72650;SHT31;61467;50.674;4.618;2023-03-18T05:41:47;11.73;78.01
72650;SHT31;61467;50.674;4.618;2023-03-18T05:44:14;11.67;77.97
72650;SHT31;61467;50.674;4.618;2023-03-18T05:46:41;11.53;78.70
72650;SHT31;61467;50.674;4.618;2023-03-18T05:49:08;11.39;79.18
72650;SHT31;61467;50.674;4.618;2023-03-18T05:51:35;11.53;78.83
72650;SHT31;61467;50.674;4.618;2023-03-18T05:54:02;11.53;78.62
72650;SHT31;61467;50.674;4.618;2023-03-18T05:56:31;11.36;79.37
72650;SHT31;61467;50.674;4.618;2023-03-18T05:58:58;11.40;78.68
72650;SHT31;61467;50.674;4.618;2023-03-18T06:01:24;11.43;78.73
72650;SHT31;61467;50.674;4.618;2023-03-18T06:03:51;11.40;78.50
72650;SHT31;61467;50.674;4.618;2023-03-18T06:06:19;11.46;78.31
72650;SHT31;61467;50.674;4.618;2023-03-18T06:08:46;11.49;78.41
72650;SHT31;61467;50.674;4.618;2023-03-18T06:11:13;11.57;78.13
72650;SHT31;61467;50.674;4.618;2023-03-18T06:13:41;11.43;78.30
72650;SHT31;61467;50.674;4.618;2023-03-18T06:16:10;11.56;78.01
72650;SHT31;61467;50.674;4.618;2023-03-18T06:18:37;11.36;78.67
72650;SHT31;61467;50.674;4.618;2023-03-18T06:21:06;11.47;78.04
72650;SHT31;61467;50.674;4.618;2023-03-18T06:23:33;11.49;78.15
72650;SHT31;61467;50.674;4.618;2023-03-18T06:26:00;11.56;77.89
72650;SHT31;61467;50.674;4.618;2023-03-18T06:28:27;11.63;77.75
72650;SHT31;61467;50.674;4.618;2023-03-18T06:30:56;11.59;77.80
72650;SHT31;61467;50.674;4.618;2023-03-18T06:33:23;11.49;77.95
72650;SHT31;61467;50.674;4.618;2023-03-18T06:35:50;11.56;77.84
72650;SHT31;61467;50.674;4.618;2023-03-18T06:38:16;11.54;77.76
72650;SHT31;61467;50.674;4.618;2023-03-18T06:40:44;11.53;77.88
72650;SHT31;61467;50.674;4.618;2023-03-18T06:43:12;11.59;77.62
72650;SHT31;61467;50.674;4.618;2023-03-18T06:45:39;11.64;77.19
72650;SHT31;61467;50.674;4.618;2023-03-18T06:48:07;11.66;77.21
72650;SHT31;61467;50.674;4.618;2023-03-18T06:50:34;11.67;77.06
72650;SHT31;61467;50.674;4.618;2023-03-18T06:53:04;11.71;76.83
72650;SHT31;61467;50.674;4.618;2023-03-18T06:55:30;11.69;76.96
72650;SHT31;61467;50.674;4.618;2023-03-18T06:57:58;11.73;76.61
72650;SHT31;61467;50.674;4.618;2023-03-18T07:00:25;11.75;76.64
72650;SHT31;61467;50.674;4.618;2023-03-18T07:02:52;11.75;76.87
72650;SHT31;61467;50.674;4.618;2023-03-18T07:05:20;11.83;76.80
72650;SHT31;61467;50.674;4.618;2023-03-18T07:07:47;11.90;76.33
72650;SHT31;61467;50.674;4.618;2023-03-18T07:10:18;11.93;76.12
72650;SHT31;61467;50.674;4.618;2023-03-18T07:12:46;11.88;76.50
72650;SHT31;61467;50.674;4.618;2023-03-18T07:15:13;11.93;76.19
72650;SHT31;61467;50.674;4.618;2023-03-18T07:17:40;11.87;76.46
72650;SHT31;61467;50.674;4.618;2023-03-18T07:20:09;11.91;76.58
72650;SHT31;61467;50.674;4.618;2023-03-18T07:22:37;11.88;76.66
72650;SHT31;61467;50.674;4.618;2023-03-18T07:25:05;11.98;76.69
72650;SHT31;61467;50.674;4.618;2023-03-18T07:27:32;11.99;76.66
72650;SHT31;61467;50.674;4.618;2023-03-18T07:29:59;11.99;77.08
72650;SHT31;61467;50.674;4.618;2023-03-18T07:32:26;12.08;77.14
72650;SHT31;61467;50.674;4.618;2023-03-18T07:34:54;11.88;77.65
72650;SHT31;61467;50.674;4.618;2023-03-18T07:37:21;12.02;77.15
72650;SHT31;61467;50.674;4.618;2023-03-18T07:39:49;11.99;77.16
72650;SHT31;61467;50.674;4.618;2023-03-18T07:42:17;11.91;77.52
72650;SHT31;61467;50.674;4.618;2023-03-18T07:44:44;11.90;77.44
72650;SHT31;61467;50.674;4.618;2023-03-18T07:47:11;12.04;77.08
72650;SHT31;61467;50.674;4.618;2023-03-18T07:49:39;12.08;76.87
72650;SHT31;61467;50.674;4.618;2023-03-18T07:52:06;12.10;76.81
72650;SHT31;61467;50.674;4.618;2023-03-18T07:54:33;12.06;76.83
72650;SHT31;61467;50.674;4.618;2023-03-18T07:57:01;12.34;76.24
72650;SHT31;61467;50.674;4.618;2023-03-18T07:59:29;12.39;76.15
72650;SHT31;61467;50.674;4.618;2023-03-18T08:01:56;12.46;76.19
72650;SHT31;61467;50.674;4.618;2023-03-18T08:04:23;12.66;75.63
72650;SHT31;61467;50.674;4.618;2023-03-18T08:06:50;12.89;74.50
72650;SHT31;61467;50.674;4.618;2023-03-18T08:09:17;12.97;74.63
72650;SHT31;61467;50.674;4.618;2023-03-18T08:11:44;13.57;72.35
72650;SHT31;61467;50.674;4.618;2023-03-18T08:14:13;13.30;72.62
72650;SHT31;61467;50.674;4.618;2023-03-18T08:16:40;13.18;73.14
72650;SHT31;61467;50.674;4.618;2023-03-18T08:19:07;13.31;73.64
72650;SHT31;61467;50.674;4.618;2023-03-18T08:21:34;13.41;73.14
72650;SHT31;61467;50.674;4.618;2023-03-18T08:24:01;13.42;73.27
72650;SHT31;61467;50.674;4.618;2023-03-18T08:26:28;13.14;74.06
72650;SHT31;61467;50.674;4.618;2023-03-18T08:28:54;13.07;74.08
72650;SHT31;61467;50.674;4.618;2023-03-18T08:31:23;13.04;75.11
72650;SHT31;61467;50.674;4.618;2023-03-18T08:33:50;13.10;74.00
72650;SHT31;61467;50.674;4.618;2023-03-18T08:36:18;13.27;73.52
72650;SHT31;61467;50.674;4.618;2023-03-18T08:38:50;13.33;73.07
72650;SHT31;61467;50.674;4.618;2023-03-18T08:41:17;13.48;73.35
72650;SHT31;61467;50.674;4.618;2023-03-18T08:43:45;13.72;73.11
72650;SHT31;61467;50.674;4.618;2023-03-18T08:46:14;13.85;71.62
72650;SHT31;61467;50.674;4.618;2023-03-18T08:48:43;13.90;71.35
72650;SHT31;61467;50.674;4.618;2023-03-18T08:51:11;13.78;71.29
72650;SHT31;61467;50.674;4.618;2023-03-18T08:53:37;13.85;71.19
72650;SHT31;61467;50.674;4.618;2023-03-18T08:56:05;13.64;71.85
72650;SHT31;61467;50.674;4.618;2023-03-18T08:58:33;13.68;70.70
72650;SHT31;61467;50.674;4.618;2023-03-18T09:01:01;13.75;71.00
72650;SHT31;61467;50.674;4.618;2023-03-18T09:03:29;13.68;71.40
72650;SHT31;61467;50.674;4.618;2023-03-18T09:05:57;13.78;70.96
72650;SHT31;61467;50.674;4.618;2023-03-18T09:08:24;13.83;71.14
72650;SHT31;61467;50.674;4.618;2023-03-18T09:10:53;13.73;70.53
72650;SHT31;61467;50.674;4.618;2023-03-18T09:13:21;13.86;70.71
72650;SHT31;61467;50.674;4.618;2023-03-18T09:15:48;13.92;70.77
72650;SHT31;61467;50.674;4.618;2023-03-18T09:18:15;13.86;70.32
72650;SHT31;61467;50.674;4.618;2023-03-18T09:20:42;13.86;69.49
72650;SHT31;61467;50.674;4.618;2023-03-18T09:23:12;13.75;69.11
72650;SHT31;61467;50.674;4.618;2023-03-18T09:25:40;13.55;69.95
72650;SHT31;61467;50.674;4.618;2023-03-18T09:28:07;13.47;70.56
72650;SHT31;61467;50.674;4.618;2023-03-18T09:30:34;13.65;69.69
72650;SHT31;61467;50.674;4.618;2023-03-18T09:33:01;13.50;70.35
72650;SHT31;61467;50.674;4.618;2023-03-18T09:35:27;13.54;70.18
72650;SHT31;61467;50.674;4.618;2023-03-18T09:37:54;13.51;70.08
72650;SHT31;61467;50.674;4.618;2023-03-18T09:40:25;13.64;69.71
72650;SHT31;61467;50.674;4.618;2023-03-18T09:43:04;13.72;69.31
72650;SHT31;61467;50.674;4.618;2023-03-18T09:45:40;13.62;69.90
72650;SHT31;61467;50.674;4.618;2023-03-18T09:48:39;13.61;68.62
72650;SHT31;61467;50.674;4.618;2023-03-18T09:51:19;13.71;68.39
72650;SHT31;61467;50.674;4.618;2023-03-18T09:53:52;13.66;68.19
72650;SHT31;61467;50.674;4.618;2023-03-18T09:56:25;13.78;68.36
72650;SHT31;61467;50.674;4.618;2023-03-18T09:58:56;13.76;68.63
72650;SHT31;61467;50.674;4.618;2023-03-18T10:01:26;13.71;68.80
72650;SHT31;61467;50.674;4.618;2023-03-18T10:03:58;13.65;68.88
72650;SHT31;61467;50.674;4.618;2023-03-18T10:06:27;13.71;68.85
72650;SHT31;61467;50.674;4.618;2023-03-18T10:09:00;13.66;69.29
72650;SHT31;61467;50.674;4.618;2023-03-18T10:11:34;13.76;68.59
72650;SHT31;61467;50.674;4.618;2023-03-18T10:14:19;13.59;68.73
72650;SHT31;61467;50.674;4.618;2023-03-18T10:17:00;13.73;68.21
72650;SHT31;61467;50.674;4.618;2023-03-18T10:19:29;13.79;68.17
72650;SHT31;61467;50.674;4.618;2023-03-18T10:22:10;13.78;68.18
72650;SHT31;61467;50.674;4.618;2023-03-18T10:24:43;13.65;69.11
72650;SHT31;61467;50.674;4.618;2023-03-18T10:27:23;13.65;69.06
72650;SHT31;61467;50.674;4.618;2023-03-18T10:29:57;13.58;69.47
72650;SHT31;61467;50.674;4.618;2023-03-18T10:32:33;13.66;69.10
72650;SHT31;61467;50.674;4.618;2023-03-18T10:35:07;13.57;69.32
72650;SHT31;61467;50.674;4.618;2023-03-18T10:37:50;13.68;69.06
72650;SHT31;61467;50.674;4.618;2023-03-18T10:40:19;13.68;69.36
72650;SHT31;61467;50.674;4.618;2023-03-18T10:42:49;13.75;69.43
72650;SHT31;61467;50.674;4.618;2023-03-18T10:45:21;13.61;69.59
72650;SHT31;61467;50.674;4.618;2023-03-18T10:48:01;13.65;69.55
72650;SHT31;61467;50.674;4.618;2023-03-18T10:50:32;13.66;70.06
72650;SHT31;61467;50.674;4.618;2023-03-18T10:53:09;13.64;70.37
72650;SHT31;61467;50.674;4.618;2023-03-18T10:55:47;13.65;70.60
72650;SHT31;61467;50.674;4.618;2023-03-18T10:58:18;13.72;70.90
72650;SHT31;61467;50.674;4.618;2023-03-18T11:00:45;13.78;70.73
72650;SHT31;61467;50.674;4.618;2023-03-18T11:03:21;13.79;70.86
72650;SHT31;61467;50.674;4.618;2023-03-18T11:05:49;13.62;71.88
72650;SHT31;61467;50.674;4.618;2023-03-18T11:08:29;13.73;70.80
72650;SHT31;61467;50.674;4.618;2023-03-18T11:11:01;13.51;71.34
72650;SHT31;61467;50.674;4.618;2023-03-18T11:13:31;13.51;70.98
72650;SHT31;61467;50.674;4.618;2023-03-18T11:15:58;13.73;70.22
72650;SHT31;61467;50.674;4.618;2023-03-18T11:18:26;13.93;69.68
72650;SHT31;61467;50.674;4.618;2023-03-18T11:20:54;13.92;69.56
72650;SHT31;61467;50.674;4.618;2023-03-18T11:23:30;13.86;69.71
72650;SHT31;61467;50.674;4.618;2023-03-18T11:26:19;14.06;69.21
72650;SHT31;61467;50.674;4.618;2023-03-18T11:28:47;14.13;69.16
72650;SHT31;61467;50.674;4.618;2023-03-18T11:31:16;14.09;69.00
72650;SHT31;61467;50.674;4.618;2023-03-18T11:33:43;14.36;68.34
72650;SHT31;61467;50.674;4.618;2023-03-18T11:36:15;14.47;69.29
72650;SHT31;61467;50.674;4.618;2023-03-18T11:38:55;14.64;67.67
72650;SHT31;61467;50.674;4.618;2023-03-18T11:41:24;14.63;67.43
72650;SHT31;61467;50.674;4.618;2023-03-18T11:43:59;14.73;67.00
72650;SHT31;61467;50.674;4.618;2023-03-18T11:46:28;14.70;66.49
72650;SHT31;61467;50.674;4.618;2023-03-18T11:48:55;14.75;67.21
72650;SHT31;61467;50.674;4.618;2023-03-18T11:51:37;14.82;67.12
72650;SHT31;61467;50.674;4.618;2023-03-18T11:54:12;14.91;67.27
72650;SHT31;61467;50.674;4.618;2023-03-18T11:56:44;14.96;66.14
72650;SHT31;61467;50.674;4.618;2023-03-18T11:59:27;15.35;64.25
72650;SHT31;61467;50.674;4.618;2023-03-18T12:02:11;15.39;64.63
72650;SHT31;61467;50.674;4.618;2023-03-18T12:04:59;15.47;64.26
72650;SHT31;61467;50.674;4.618;2023-03-18T12:07:57;15.64;64.10
72650;SHT31;61467;50.674;4.618;2023-03-18T12:10:30;15.71;63.13
72650;SHT31;61467;50.674;4.618;2023-03-18T12:13:11;15.69;61.92
72650;SHT31;61467;50.674;4.618;2023-03-18T12:15:47;15.57;62.18
72650;SHT31;61467;50.674;4.618;2023-03-18T12:18:35;15.40;62.50
72650;SHT31;61467;50.674;4.618;2023-03-18T12:21:17;15.43;61.64
72650;SHT31;61467;50.674;4.618;2023-03-18T12:23:54;15.49;62.21
72650;SHT31;61467;50.674;4.618;2023-03-18T12:26:29;15.56;61.75
72650;SHT31;61467;50.674;4.618;2023-03-18T12:32:08;15.94;61.10
72650;SHT31;61467;50.674;4.618;2023-03-18T12:34:52;16.42;58.92
72650;SHT31;61467;50.674;4.618;2023-03-18T12:37:30;16.45;59.13
72650;SHT31;61467;50.674;4.618;2023-03-18T12:40:16;16.51;58.15
72650;SHT31;61467;50.674;4.618;2023-03-18T12:43:08;16.61;57.27
72650;SHT31;61467;50.674;4.618;2023-03-18T12:45:44;16.80;55.96
72650;SHT31;61467;50.674;4.618;2023-03-18T12:48:16;16.93;56.14
72650;SHT31;61467;50.674;4.618;2023-03-18T12:50:47;17.12;55.42
72650;SHT31;61467;50.674;4.618;2023-03-18T12:53:18;17.33;54.56
72650;SHT31;61467;50.674;4.618;2023-03-18T12:55:50;17.35;54.99
72650;SHT31;61467;50.674;4.618;2023-03-18T12:58:24;17.48;54.34
72650;SHT31;61467;50.674;4.618;2023-03-18T13:00:57;17.58;53.20
72650;SHT31;61467;50.674;4.618;2023-03-18T13:03:36;17.68;53.03
72650;SHT31;61467;50.674;4.618;2023-03-18T13:06:08;17.81;52.52
72650;SHT31;61467;50.674;4.618;2023-03-18T13:08:50;17.96;53.11
72650;SHT31;61467;50.674;4.618;2023-03-18T13:11:35;18.05;53.20
72650;SHT31;61467;50.674;4.618;2023-03-18T13:14:13;18.20;52.08
72650;SHT31;61467;50.674;4.618;2023-03-18T13:16:44;18.26;51.24
72650;SHT31;61467;50.674;4.618;2023-03-18T13:19:13;18.49;51.03
72650;SHT31;61467;50.674;4.618;2023-03-18T13:21:46;18.56;50.07
72650;SHT31;61467;50.674;4.618;2023-03-18T13:24:26;18.33;50.03
72650;SHT31;61467;50.674;4.618;2023-03-18T13:27:07;18.36;49.88
72650;SHT31;61467;50.674;4.618;2023-03-18T13:29:40;18.46;50.71
72650;SHT31;61467;50.674;4.618;2023-03-18T13:32:25;18.46;50.79
72650;SHT31;61467;50.674;4.618;2023-03-18T13:35:13;18.36;50.05
72650;SHT31;61467;50.674;4.618;2023-03-18T13:37:58;18.47;50.13
72650;SHT31;61467;50.674;4.618;2023-03-18T13:40:39;18.37;49.18
72650;SHT31;61467;50.674;4.618;2023-03-18T13:43:10;18.20;49.60
72650;SHT31;61467;50.674;4.618;2023-03-18T13:45:39;18.13;49.81
72650;SHT31;61467;50.674;4.618;2023-03-18T13:48:12;17.92;51.27
72650;SHT31;61467;50.674;4.618;2023-03-18T13:50:43;17.79;50.38
72650;SHT31;61467;50.674;4.618;2023-03-18T13:53:21;17.54;50.19
72650;SHT31;61467;50.674;4.618;2023-03-18T13:55:58;17.55;50.65
72650;SHT31;61467;50.674;4.618;2023-03-18T13:58:26;17.26;51.56
72650;SHT31;61467;50.674;4.618;2023-03-18T14:01:28;17.41;52.24
72650;SHT31;61467;50.674;4.618;2023-03-18T14:04:25;17.35;51.66
72650;SHT31;61467;50.674;4.618;2023-03-18T14:06:59;17.07;52.66
72650;SHT31;61467;50.674;4.618;2023-03-18T14:09:53;17.10;51.43
72650;SHT31;61467;50.674;4.618;2023-03-18T14:12:36;17.16;52.81
72650;SHT31;61467;50.674;4.618;2023-03-18T14:15:36;17.51;52.46
72650;SHT31;61467;50.674;4.618;2023-03-18T14:18:17;17.89;51.20
72650;SHT31;61467;50.674;4.618;2023-03-18T14:20:51;17.92;50.94
72650;SHT31;61467;50.674;4.618;2023-03-18T14:23:34;18.02;49.62
72650;SHT31;61467;50.674;4.618;2023-03-18T14:26:05;18.06;49.61
72650;SHT31;61467;50.674;4.618;2023-03-18T14:28:43;18.37;49.16
72650;SHT31;61467;50.674;4.618;2023-03-18T14:31:28;18.42;49.55
72650;SHT31;61467;50.674;4.618;2023-03-18T14:34:32;18.51;49.14
72650;SHT31;61467;50.674;4.618;2023-03-18T14:37:18;18.19;48.90
72650;SHT31;61467;50.674;4.618;2023-03-18T14:39:48;18.26;48.83
72650;SHT31;61467;50.674;4.618;2023-03-18T14:42:31;18.12;49.59
72650;SHT31;61467;50.674;4.618;2023-03-18T14:45:06;17.91;49.37
72650;SHT31;61467;50.674;4.618;2023-03-18T14:47:44;17.75;49.73
72650;SHT31;61467;50.674;4.618;2023-03-18T14:50:15;17.55;50.76
72650;SHT31;61467;50.674;4.618;2023-03-18T14:52:48;17.60;50.29
72650;SHT31;61467;50.674;4.618;2023-03-18T14:55:21;17.60;50.50
72650;SHT31;61467;50.674;4.618;2023-03-18T14:57:50;17.55;51.14
72650;SHT31;61467;50.674;4.618;2023-03-18T15:00:19;17.44;51.38
72650;SHT31;61467;50.674;4.618;2023-03-18T15:02:57;17.40;50.92
72650;SHT31;61467;50.674;4.618;2023-03-18T15:05:29;17.17;51.62
72650;SHT31;61467;50.674;4.618;2023-03-18T15:07:57;17.40;51.51
72650;SHT31;61467;50.674;4.618;2023-03-18T15:10:26;17.33;51.29
72650;SHT31;61467;50.674;4.618;2023-03-18T15:13:00;17.31;51.22
72650;SHT31;61467;50.674;4.618;2023-03-18T15:15:29;17.45;50.65
72650;SHT31;61467;50.674;4.618;2023-03-18T15:17:59;17.28;51.56
72650;SHT31;61467;50.674;4.618;2023-03-18T15:20:27;17.17;51.84
72650;SHT31;61467;50.674;4.618;2023-03-18T15:22:57;17.24;51.67
72650;SHT31;61467;50.674;4.618;2023-03-18T15:25:25;17.30;52.15
72650;SHT31;61467;50.674;4.618;2023-03-18T15:27:53;17.40;51.93
72650;SHT31;61467;50.674;4.618;2023-03-18T15:30:25;17.33;52.12
72650;SHT31;61467;50.674;4.618;2023-03-18T15:33:04;17.23;52.53
72650;SHT31;61467;50.674;4.618;2023-03-18T15:35:33;17.30;52.59
72650;SHT31;61467;50.674;4.618;2023-03-18T15:38:10;17.27;52.04
72650;SHT31;61467;50.674;4.618;2023-03-18T15:40:47;17.30;52.33
72650;SHT31;61467;50.674;4.618;2023-03-18T15:43:19;17.24;51.85
72650;SHT31;61467;50.674;4.618;2023-03-18T15:45:52;17.28;51.87
72650;SHT31;61467;50.674;4.618;2023-03-18T15:48:23;17.10;51.84
72650;SHT31;61467;50.674;4.618;2023-03-18T15:50:53;17.03;52.28
72650;SHT31;61467;50.674;4.618;2023-03-18T15:53:22;17.14;51.58
72650;SHT31;61467;50.674;4.618;2023-03-18T15:55:52;17.00;51.85